createdAt,value
2019-05-10T00:00:47.120Z,6.30
2019-05-10T00:03:35.749Z,6.33
2019-05-10T00:06:24.431Z,7.10
2019-05-10T00:08:54.335Z,6.40
2019-05-10T00:11:44.276Z,6.70
2019-05-10T00:14:28.046Z,6.50
2019-05-10T00:17:04.216Z,6.15
2019-05-10T00:19:35.150Z,6.53
2019-05-10T00:22:06.057Z,6.93
2019-05-10T00:24:36.787Z,6.93
2019-05-10T00:27:07.701Z,6.17
2019-05-10T00:29:38.439Z,7.20
2019-05-10T00:32:09.848Z,7.10
2019-05-10T00:34:40.683Z,7.13
2019-05-10T00:37:11.480Z,7.13
2019-05-10T00:39:42.338Z,6.43
2019-05-10T00:42:13.166Z,6.90
2019-05-10T00:44:43.995Z,6.87
2019-05-10T00:47:14.916Z,6.90
2019-05-10T00:49:45.642Z,7.93
2019-05-10T00:52:16.478Z,7.33
2019-05-10T00:54:47.351Z,7.13
2019-05-10T00:57:18.262Z,7.70
2019-05-10T00:59:49.328Z,7.57
2019-05-10T01:02:20.042Z,6.80
2019-05-10T01:04:51.217Z,7.47
2019-05-10T01:07:22.033Z,7.10
2019-05-10T01:09:52.858Z,6.67
2019-05-10T01:12:23.973Z,6.93
2019-05-10T01:14:54.818Z,7.37
2019-05-10T01:17:25.655Z,7.67
2019-05-10T01:19:57.364Z,7.40
2019-05-10T01:22:28.468Z,7.73
2019-05-10T01:24:59.350Z,8.10
2019-05-10T01:27:30.183Z,8.70
2019-05-10T01:30:01.491Z,9.13
2019-05-10T01:32:32.513Z,9.20
2019-05-10T01:35:03.511Z,8.57
2019-05-10T01:37:34.354Z,8.83
2019-05-10T01:40:05.514Z,7.97
2019-05-10T01:42:36.237Z,8.37
2019-05-10T01:45:08.155Z,8.50
2019-05-10T01:47:38.956Z,8.60
2019-05-10T01:50:10.797Z,8.57
2019-05-10T01:52:41.642Z,8.23
2019-05-10T01:55:12.804Z,8.33
2019-05-10T01:57:43.856Z,8.67
2019-05-10T02:00:15.289Z,7.87
2019-05-10T02:02:46.138Z,8.10
2019-05-10T02:05:17.148Z,8.20
2019-05-10T02:07:48.902Z,8.27
2019-05-10T02:10:19.812Z,8.57
2019-05-10T02:12:50.658Z,8.77
2019-05-10T02:15:21.820Z,9.17
2019-05-10T02:17:52.766Z,8.87
2019-05-10T02:20:23.721Z,9.57
2019-05-10T02:22:54.562Z,9.43
2019-05-10T02:25:25.849Z,9.13
2019-05-10T02:27:57.602Z,8.73
2019-05-10T02:30:28.774Z,8.60
2019-05-10T02:32:59.539Z,9.48
2019-05-10T02:35:30.646Z,8.93
2019-05-10T02:38:03.287Z,9.03
2019-05-10T02:40:35.306Z,9.33
2019-05-10T02:43:06.321Z,9.93
2019-05-10T02:45:37.365Z,8.73
2019-05-10T02:48:08.743Z,8.80
2019-05-10T02:50:41.673Z,9.00
2019-05-10T02:53:18.330Z,8.93
2019-05-10T02:56:00.611Z,8.87
2019-05-10T02:58:32.831Z,8.37
2019-05-10T03:01:12.305Z,9.30
2019-05-10T03:03:46.405Z,8.90
2019-05-10T03:06:19.644Z,7.97
2019-05-10T03:08:52.379Z,10.10
2019-05-10T03:11:33.101Z,10.07
2019-05-10T03:14:10.828Z,11.00
2019-05-10T03:16:45.010Z,11.30
2019-05-10T03:19:19.095Z,10.17
2019-05-10T03:21:57.541Z,10.30
2019-05-10T03:24:29.629Z,11.33
2019-05-10T03:27:01.513Z,11.07
2019-05-10T03:29:32.961Z,9.33
2019-05-10T03:32:04.252Z,8.90
2019-05-10T03:34:35.525Z,9.47
2019-05-10T03:37:06.833Z,8.93
2019-05-10T03:39:38.430Z,9.33
2019-05-10T03:42:09.725Z,7.87
2019-05-10T03:44:40.783Z,9.63
2019-05-10T03:47:11.879Z,10.13
2019-05-10T03:49:42.972Z,9.23
2019-05-10T03:52:13.781Z,8.73
2019-05-10T03:54:45.112Z,8.50
2019-05-10T03:57:16.013Z,8.23
2019-05-10T03:59:47.859Z,8.53
2019-05-10T04:02:18.917Z,10.20
2019-05-10T04:04:53.406Z,10.00
2019-05-10T04:07:24.684Z,9.93
2019-05-10T04:09:55.468Z,11.80
2019-05-10T04:12:26.591Z,10.73
2019-05-10T04:14:57.366Z,9.50
2019-05-10T04:17:28.083Z,8.60
2019-05-10T04:19:59.145Z,9.13
2019-05-10T04:22:30.268Z,9.13
2019-05-10T04:25:01.190Z,10.87
2019-05-10T04:27:33.341Z,10.23
2019-05-10T04:30:04.634Z,11.40
2019-05-10T04:32:35.424Z,10.47
2019-05-10T04:35:06.638Z,9.07
2019-05-10T04:37:37.435Z,8.50
2019-05-10T04:40:09.182Z,8.30
2019-05-10T04:42:39.948Z,7.60
2019-05-10T04:45:11.132Z,7.93
2019-05-10T04:47:42.149Z,9.10
2019-05-10T04:50:13.262Z,6.93
2019-05-10T04:52:44.314Z,6.97
2019-05-10T04:55:15.263Z,7.90
2019-05-10T04:57:50.707Z,7.20
2019-05-10T05:00:18.912Z,7.80
2019-05-10T05:02:49.632Z,7.80
2019-05-10T05:05:20.418Z,7.87
2019-05-10T05:07:51.138Z,8.47
2019-05-10T05:10:21.947Z,7.80
2019-05-10T05:12:52.658Z,7.90
2019-05-10T05:15:23.433Z,7.67
2019-05-10T05:17:54.210Z,7.90
2019-05-10T05:20:24.995Z,7.97
2019-05-10T05:22:56.000Z,9.90
2019-05-10T05:25:26.797Z,11.28
2019-05-10T05:28:07.373Z,10.03
2019-05-10T05:30:30.053Z,10.20
2019-05-10T05:33:00.761Z,9.93
2019-05-10T05:35:31.607Z,8.60
2019-05-10T05:38:02.719Z,10.07
2019-05-10T05:40:34.537Z,8.40
2019-05-10T05:43:08.145Z,8.07
2019-05-10T05:45:38.137Z,9.07
2019-05-10T05:48:08.940Z,9.33
2019-05-10T05:50:39.786Z,7.73
2019-05-10T05:53:10.794Z,10.00
2019-05-10T05:55:41.533Z,8.40
2019-05-10T05:58:25.753Z,8.03
2019-05-10T06:00:46.744Z,8.60
2019-05-10T06:03:27.478Z,8.80
2019-05-10T06:05:50.544Z,8.60
2019-05-10T06:08:23.679Z,9.20
2019-05-10T06:10:57.539Z,8.60
2019-05-10T06:13:30.155Z,8.80
2019-05-10T06:16:00.232Z,9.27
2019-05-10T06:18:31.452Z,9.23
2019-05-10T06:21:02.430Z,9.08
2019-05-10T06:23:35.311Z,8.93
2019-05-10T06:26:06.790Z,8.70
2019-05-10T06:28:57.540Z,8.65
2019-05-10T06:31:10.276Z,7.67
2019-05-10T06:33:44.930Z,6.80
2019-05-10T06:36:14.153Z,7.17
2019-05-10T06:38:45.024Z,7.08
2019-05-10T06:41:16.729Z,5.72
2019-05-10T06:43:51.226Z,5.50
2019-05-10T06:46:23.569Z,5.12
2019-05-10T06:48:52.974Z,4.70
2019-05-10T06:51:23.797Z,4.78
2019-05-10T06:53:54.871Z,4.47
2019-05-10T06:56:25.701Z,4.20
2019-05-10T06:59:11.221Z,4.30
2019-05-10T07:01:29.193Z,4.35
2019-05-10T07:03:59.956Z,4.00
2019-05-10T07:06:30.829Z,3.58
2019-05-10T07:09:02.453Z,3.00
2019-05-10T07:11:33.436Z,3.10
2019-05-10T07:14:04.215Z,3.85
2019-05-10T07:16:35.241Z,3.47
2019-05-10T07:19:07.073Z,3.58
2019-05-10T07:21:39.021Z,3.58
2019-05-10T07:24:11.527Z,3.40
2019-05-10T07:26:42.387Z,3.72
2019-05-10T07:29:27.886Z,3.47
2019-05-10T07:31:45.934Z,3.52
2019-05-10T07:34:17.639Z,3.08
2019-05-10T07:36:48.826Z,3.50
2019-05-10T07:39:19.763Z,3.70
2019-05-10T07:41:50.587Z,3.22
2019-05-10T07:44:21.700Z,3.83
2019-05-10T07:46:56.500Z,3.62
2019-05-10T07:49:30.210Z,3.92
2019-05-10T07:52:02.130Z,3.37
2019-05-10T07:54:29.511Z,3.60
2019-05-10T07:57:01.295Z,3.67
2019-05-10T07:59:49.601Z,4.17
2019-05-10T08:02:12.611Z,4.00
2019-05-10T08:04:38.551Z,3.87
2019-05-10T08:07:11.825Z,4.40
2019-05-10T08:09:45.288Z,4.03
2019-05-10T08:12:15.239Z,4.65
2019-05-10T08:14:51.832Z,4.72
2019-05-10T08:17:19.277Z,4.45
2019-05-10T08:19:51.520Z,4.85
2019-05-10T08:22:23.585Z,5.37
2019-05-10T08:24:57.770Z,5.55
2019-05-10T08:27:28.805Z,5.45
2019-05-10T08:32:34.864Z,5.80
2019-05-10T08:35:15.985Z,5.95
2019-05-10T08:37:38.541Z,5.80
2019-05-10T08:40:09.433Z,6.10
2019-05-10T08:42:45.304Z,7.33
2019-05-10T08:45:13.166Z,6.70
2019-05-10T08:47:44.214Z,6.60
2019-05-10T08:50:29.104Z,7.35
2019-05-10T08:52:48.690Z,8.28
2019-05-10T08:55:19.548Z,15.10
2019-05-10T08:57:52.471Z,9.95
2019-05-10T09:00:41.567Z,12.30
2019-05-10T09:03:00.875Z,9.30
2019-05-10T09:05:31.904Z,9.50
2019-05-10T09:08:05.489Z,9.10
2019-05-10T09:10:34.531Z,9.45
2019-05-10T09:13:05.508Z,9.78
2019-05-10T09:15:43.239Z,9.95
2019-05-10T09:18:08.953Z,12.05
2019-05-10T09:20:42.016Z,11.43
2019-05-10T09:23:15.245Z,11.60
2019-05-10T09:25:45.051Z,12.85
2019-05-10T09:28:17.131Z,13.60
2019-05-10T09:30:59.361Z,14.45
2019-05-10T09:33:22.593Z,14.13
2019-05-10T09:35:55.103Z,15.32
2019-05-10T09:38:28.707Z,13.68
2019-05-10T09:40:58.806Z,14.68
2019-05-10T09:43:31.988Z,13.75
2019-05-10T09:46:02.879Z,13.48
2019-05-10T09:48:34.073Z,11.73
2019-05-10T09:51:05.138Z,12.37
2019-05-10T09:53:38.316Z,12.70
2019-05-10T09:56:08.768Z,13.38
2019-05-10T09:58:39.530Z,11.45
2019-05-10T10:01:17.655Z,12.55
2019-05-10T10:03:44.787Z,12.75
2019-05-10T10:06:15.557Z,11.55
2019-05-10T10:08:51.387Z,11.68
2019-05-10T10:11:18.941Z,11.55
2019-05-10T10:13:59.124Z,10.32
2019-05-10T10:16:23.457Z,11.70
2019-05-10T10:18:54.212Z,12.18
2019-05-10T10:21:35.040Z,11.90
2019-05-10T10:24:00.349Z,11.65
2019-05-10T10:26:30.298Z,14.07
2019-05-10T10:29:01.215Z,17.67
2019-05-10T10:31:33.604Z,18.07
2019-05-10T10:34:07.349Z,20.48
2019-05-10T10:36:40.197Z,20.88
2019-05-10T10:39:22.814Z,18.50
2019-05-10T10:41:57.163Z,20.88
2019-05-10T10:44:28.134Z,20.35
2019-05-10T10:46:59.311Z,21.48
2019-05-10T10:49:32.117Z,24.30
2019-05-10T10:52:05.576Z,20.80
2019-05-10T10:54:39.776Z,21.07
2019-05-10T10:57:09.196Z,22.32
2019-05-10T10:59:40.545Z,21.80
2019-05-10T11:04:46.597Z,21.10
2019-05-10T11:07:16.253Z,19.80
2019-05-10T11:09:47.021Z,19.48
2019-05-10T11:12:21.082Z,17.80
2019-05-10T11:14:51.649Z,17.32
2019-05-10T11:17:25.205Z,15.80
2019-05-10T11:19:56.014Z,13.65
2019-05-10T11:22:27.466Z,12.82
2019-05-10T11:25:06.777Z,11.85
2019-05-10T11:27:31.011Z,13.95
2019-05-10T11:30:01.817Z,13.95
2019-05-10T11:32:32.581Z,13.83
2019-05-10T11:35:05.381Z,13.03
2019-05-10T11:37:36.508Z,12.23
2019-05-10T11:40:08.681Z,9.43
2019-05-10T11:42:43.660Z,7.42
2019-05-10T11:45:12.982Z,6.00
2019-05-10T11:47:48.109Z,5.58
2019-05-10T11:50:28.673Z,6.20
2019-05-10T11:52:51.329Z,6.12
2019-05-10T11:55:25.265Z,6.45
2019-05-10T11:58:03.224Z,5.83
2019-05-10T12:00:33.651Z,7.60
2019-05-10T12:03:07.778Z,8.38
2019-05-10T12:05:34.008Z,10.25
2019-05-10T12:08:04.809Z,9.50
2019-05-10T12:10:35.693Z,9.43
2019-05-10T12:13:15.891Z,10.35
2019-05-10T12:15:43.069Z,10.53
2019-05-10T12:18:14.894Z,9.58
2019-05-10T12:20:55.671Z,9.10
2019-05-10T12:23:24.904Z,8.53
2019-05-10T12:26:18.785Z,7.67
2019-05-10T12:28:28.750Z,7.97
2019-05-10T12:30:56.635Z,6.92
2019-05-10T12:33:27.930Z,6.50
2019-05-10T12:35:58.663Z,6.85
2019-05-10T12:38:31.710Z,5.80
2019-05-10T12:41:05.445Z,5.87
2019-05-10T12:43:35.712Z,6.55
2019-05-10T12:46:06.626Z,6.30
2019-05-10T12:48:37.542Z,6.80
2019-05-10T12:51:12.593Z,6.72
2019-05-10T12:53:44.448Z,6.70
2019-05-10T12:56:13.826Z,6.35
2019-05-10T12:58:44.558Z,7.03
2019-05-10T13:01:15.314Z,7.25
2019-05-10T13:03:46.607Z,7.58
2019-05-10T13:06:19.829Z,8.13
2019-05-10T13:08:50.282Z,6.33
2019-05-10T13:11:25.457Z,6.20
2019-05-10T13:14:00.749Z,7.20
2019-05-10T13:16:26.537Z,5.75
2019-05-10T13:18:57.469Z,6.35
2019-05-10T13:21:30.296Z,5.42
2019-05-10T13:24:00.723Z,4.65
2019-05-10T13:26:31.494Z,4.17
2019-05-10T13:29:08.237Z,3.47
2019-05-10T13:31:41.782Z,3.12
2019-05-10T13:34:07.948Z,3.20
2019-05-10T13:36:39.297Z,2.70
2019-05-10T13:39:10.084Z,1.98
2019-05-10T13:41:40.902Z,2.70
2019-05-10T13:44:11.981Z,2.30
2019-05-10T13:46:42.894Z,2.98
2019-05-10T13:49:13.958Z,3.37
2019-05-10T13:51:44.812Z,4.17
2019-05-10T13:54:15.777Z,5.80
2019-05-10T13:56:52.363Z,4.75
2019-05-10T13:59:20.043Z,5.00
2019-05-10T14:01:51.506Z,4.87
2019-05-10T14:04:23.393Z,4.95
2019-05-10T14:06:54.115Z,4.80
2019-05-10T14:09:25.177Z,5.30
2019-05-10T14:11:56.447Z,5.05
2019-05-10T14:14:27.923Z,5.50
2019-05-10T14:17:01.125Z,5.10
2019-05-10T14:19:35.932Z,5.40
2019-05-10T14:22:04.983Z,5.20
2019-05-10T14:24:36.062Z,5.37
2019-05-10T14:27:08.673Z,4.67
2019-05-10T14:29:39.393Z,4.50
2019-05-10T14:32:10.327Z,4.80
2019-05-10T14:34:44.213Z,4.97
2019-05-10T14:37:14.132Z,5.10
2019-05-10T14:39:46.145Z,5.50
2019-05-10T14:42:17.126Z,5.25
2019-05-10T14:44:47.916Z,5.40
2019-05-10T14:47:18.975Z,5.62
2019-05-10T14:49:50.310Z,5.20
2019-05-10T14:52:22.638Z,4.85
2019-05-10T14:54:55.497Z,5.10
2019-05-10T14:57:26.010Z,4.55
2019-05-10T14:59:56.927Z,5.37
2019-05-10T15:02:28.219Z,4.95
2019-05-10T15:05:01.487Z,4.70
2019-05-10T15:07:32.161Z,5.03
2019-05-10T15:10:03.327Z,4.85
2019-05-10T15:12:34.122Z,4.60
2019-05-10T15:15:06.222Z,12.50
2019-05-10T15:17:36.960Z,16.20
2019-05-10T15:20:10.735Z,6.10
2019-05-10T15:22:42.457Z,5.12
2019-05-10T15:25:15.152Z,6.40
2019-05-10T15:27:47.156Z,5.10
2019-05-10T15:30:18.120Z,4.87
2019-05-10T15:32:49.037Z,4.55
2019-05-10T15:35:19.787Z,4.37
2019-05-10T15:37:50.908Z,3.42
2019-05-10T15:40:21.975Z,2.87
2019-05-10T15:42:52.938Z,2.33
2019-05-10T15:45:24.400Z,1.57
2019-05-10T15:47:57.426Z,1.40
2019-05-10T15:50:32.527Z,1.30
2019-05-10T15:53:02.018Z,1.50
2019-05-10T15:55:32.820Z,1.50
2019-05-10T15:58:03.776Z,1.30
2019-05-10T16:00:39.333Z,1.30
2019-05-10T16:03:07.234Z,1.30
2019-05-10T16:05:43.586Z,1.80
2019-05-10T16:08:13.525Z,1.40
2019-05-10T16:10:43.174Z,1.70
2019-05-10T16:13:15.165Z,2.25
2019-05-10T16:15:51.553Z,1.72
2019-05-10T16:18:19.867Z,1.98
2019-05-10T16:20:50.791Z,7.20
2019-05-10T16:23:22.500Z,2.15
2019-05-10T16:25:53.332Z,2.17
2019-05-10T16:28:24.847Z,2.45
2019-05-10T16:30:55.749Z,1.87
2019-05-10T16:33:26.495Z,1.80
2019-05-10T16:35:57.309Z,1.98
2019-05-10T16:38:28.273Z,2.22
2019-05-10T16:41:00.731Z,2.02
2019-05-10T16:43:31.782Z,2.10
2019-05-10T16:46:02.807Z,2.27
2019-05-10T16:48:33.624Z,2.20
2019-05-10T16:51:09.926Z,4.92
2019-05-10T16:53:37.876Z,1.80
2019-05-10T16:56:13.321Z,1.72
2019-05-10T16:58:42.336Z,1.65
2019-05-10T17:01:18.810Z,2.00
2019-05-10T17:03:51.108Z,2.00
2019-05-10T17:06:19.112Z,1.98
2019-05-10T17:08:50.345Z,1.57
2019-05-10T17:11:21.455Z,1.37
2019-05-10T17:13:55.380Z,1.60
2019-05-10T17:16:24.632Z,1.55
2019-05-10T17:18:56.813Z,1.30
2019-05-10T17:21:27.834Z,1.50
2019-05-10T17:23:59.415Z,1.60
2019-05-10T17:26:32.831Z,1.82
2019-05-10T17:29:07.308Z,1.50
2019-05-10T17:31:39.665Z,1.80
2019-05-10T17:34:08.617Z,1.75
2019-05-10T17:36:40.025Z,1.67
2019-05-10T17:39:11.232Z,1.90
2019-05-10T17:41:43.013Z,1.70
2019-05-10T17:44:17.552Z,1.82
2019-05-10T17:46:50.336Z,1.60
2019-05-10T17:49:19.085Z,1.80
2019-05-10T17:51:51.066Z,2.00
2019-05-10T17:54:22.351Z,1.80
2019-05-10T17:56:54.529Z,1.70
2019-05-10T17:59:25.488Z,1.80
2019-05-10T18:01:56.466Z,1.98
2019-05-10T18:04:27.486Z,1.80
2019-05-10T18:06:58.541Z,1.80
2019-05-10T18:09:29.463Z,1.57
2019-05-10T18:12:01.923Z,1.90
2019-05-10T18:14:33.247Z,1.80
2019-05-10T18:17:08.171Z,1.80
2019-05-10T18:19:41.418Z,1.75
2019-05-10T18:22:12.478Z,3.00
2019-05-10T18:24:43.513Z,3.27
2019-05-10T18:27:14.421Z,6.60
2019-05-10T18:29:45.614Z,3.65
2019-05-10T18:32:16.771Z,6.28
2019-05-10T18:34:47.793Z,6.28
2019-05-10T18:37:21.875Z,6.62
2019-05-10T18:39:52.858Z,3.62
2019-05-10T18:42:25.222Z,3.35
2019-05-10T18:44:56.536Z,3.90
2019-05-10T18:47:27.596Z,4.35
2019-05-10T18:49:58.627Z,2.77
2019-05-10T18:52:29.734Z,3.83
2019-05-10T18:55:02.237Z,2.80
2019-05-10T18:57:33.459Z,3.63
2019-05-10T19:00:05.196Z,3.42
2019-05-10T19:02:37.206Z,2.60
2019-05-10T19:05:08.782Z,3.17
2019-05-10T19:07:39.721Z,3.35
2019-05-10T19:10:11.033Z,2.42
2019-05-10T19:12:42.808Z,3.80
2019-05-10T19:15:15.544Z,3.10
2019-05-10T19:17:47.330Z,13.18
2019-05-10T19:20:18.709Z,3.52
2019-05-10T19:22:50.623Z,3.37
2019-05-10T19:25:21.650Z,3.10
2019-05-10T19:27:52.575Z,3.00
2019-05-10T19:30:23.776Z,2.90
2019-05-10T19:32:56.540Z,2.80
2019-05-10T19:35:35.678Z,2.50
2019-05-10T19:38:03.697Z,2.20
2019-05-10T19:40:34.768Z,2.58
2019-05-10T19:43:05.739Z,2.53
2019-05-10T19:45:36.704Z,2.87
2019-05-10T19:48:07.918Z,2.90
2019-05-10T19:50:38.874Z,3.60
2019-05-10T19:53:09.867Z,3.70
2019-05-10T19:55:40.693Z,3.97
2019-05-10T19:58:11.630Z,5.30
2019-05-10T20:00:42.620Z,4.10
2019-05-10T20:03:13.481Z,3.17
2019-05-10T20:05:46.133Z,3.40
2019-05-10T20:08:16.913Z,3.43
2019-05-10T20:10:47.845Z,3.50
2019-05-10T20:13:18.740Z,4.25
2019-05-10T20:15:49.502Z,4.50
2019-05-10T20:18:20.423Z,5.07
2019-05-10T20:20:51.428Z,4.50
2019-05-10T20:23:23.150Z,3.90
2019-05-10T20:25:53.993Z,3.23
2019-05-10T20:28:24.968Z,3.03
2019-05-10T20:30:55.876Z,3.07
2019-05-10T20:33:27.495Z,3.20
2019-05-10T20:36:00.695Z,3.03
2019-05-10T20:38:34.545Z,2.87
2019-05-10T20:41:06.175Z,3.50
2019-05-10T20:43:37.176Z,3.23
2019-05-10T20:46:11.038Z,3.47
2019-05-10T20:48:40.509Z,3.60
2019-05-10T20:51:14.360Z,3.60
2019-05-10T20:53:48.184Z,4.53
2019-05-10T20:56:19.466Z,4.10
2019-05-10T20:58:50.318Z,5.80
2019-05-10T21:01:21.181Z,8.87
2019-05-10T21:03:52.099Z,6.97
2019-05-10T21:06:22.928Z,10.60
2019-05-10T21:08:53.778Z,11.20
2019-05-10T21:11:24.939Z,8.70
2019-05-10T21:13:58.048Z,7.30
2019-05-10T21:16:30.973Z,7.10
2019-05-10T21:19:02.660Z,7.80
2019-05-10T21:21:33.428Z,7.07
2019-05-10T21:24:04.548Z,6.60
2019-05-10T21:26:36.180Z,6.77
2019-05-10T21:29:07.977Z,5.77
2019-05-10T21:31:40.760Z,5.50
2019-05-10T21:34:13.025Z,5.30
2019-05-10T21:36:44.586Z,5.17
2019-05-10T21:39:19.362Z,4.73
2019-05-10T21:41:54.260Z,4.70
2019-05-10T21:44:25.160Z,5.00
2019-05-10T21:46:59.151Z,5.37
2019-05-10T21:49:30.199Z,5.57
2019-05-10T21:52:01.589Z,5.40
2019-05-10T21:54:33.578Z,6.00
2019-05-10T21:57:04.880Z,5.73
2019-05-10T21:59:35.677Z,5.10
2019-05-10T22:02:06.965Z,5.93
2019-05-10T22:04:38.045Z,7.07
2019-05-10T22:07:09.206Z,6.30
2019-05-10T22:09:39.953Z,6.17
2019-05-10T22:12:11.684Z,6.20
2019-05-10T22:14:42.467Z,6.07
2019-05-10T22:17:13.560Z,5.93
2019-05-10T22:19:47.033Z,5.80
2019-05-10T22:22:17.845Z,5.70
2019-05-10T22:24:48.613Z,5.90
2019-05-10T22:27:19.532Z,5.40
2019-05-10T22:29:50.306Z,5.90
2019-05-10T22:32:21.139Z,5.63
2019-05-10T22:34:51.944Z,5.73
2019-05-10T22:37:22.705Z,5.53
2019-05-10T22:39:53.537Z,5.43
2019-05-10T22:42:25.226Z,5.80
2019-05-10T22:44:56.005Z,5.50
2019-05-10T22:47:26.851Z,6.07
2019-05-10T22:49:57.651Z,5.50
2019-05-10T22:52:29.567Z,5.37
2019-05-10T22:55:00.878Z,5.43
2019-05-10T22:57:31.829Z,5.83
2019-05-10T23:00:04.120Z,6.43
2019-05-10T23:02:36.703Z,5.47
2019-05-10T23:05:07.681Z,5.60
2019-05-10T23:07:38.561Z,6.40
2019-05-10T23:10:09.690Z,6.37
2019-05-10T23:12:40.506Z,6.73
2019-05-10T23:15:12.515Z,7.03
2019-05-10T23:17:43.234Z,7.10
2019-05-10T23:20:14.193Z,7.30
2019-05-10T23:22:45.261Z,6.37
2019-05-10T23:25:17.147Z,6.77
2019-05-10T23:27:48.124Z,6.80
2019-05-10T23:30:18.992Z,6.57
2019-05-10T23:32:49.734Z,6.97
2019-05-10T23:35:20.862Z,6.50
2019-05-10T23:37:51.676Z,6.90
2019-05-10T23:40:22.556Z,7.13
2019-05-10T23:42:53.370Z,7.30
2019-05-10T23:45:24.375Z,6.63
2019-05-10T23:47:55.203Z,6.53
2019-05-10T23:50:25.977Z,6.30
2019-05-10T23:52:56.962Z,7.57
2019-05-10T23:55:28.147Z,6.73
2019-05-10T23:57:58.969Z,7.33
